Tiempo atmosférico en la estación meteorológica de Espolla, Girona (94 m.)



Fecha
DESCASC
Temp. máxima en grados centígrados (hora)
DESCASC
Temp. mínima en grados centígrados (hora)
DESCASC
Temp. media en grados centígrados
DESCASC
Racha de viento máxima en m/sg (hora)
DESCASC
Velocidad máxima media en intervalos de 10 minutos(hora)
DESCASC
Precipitaciones diarias en mm
DESCASC
Precipitaciones de 00:00 a 06:00 en mm
DESCASC
Precipitaciones de 06:00 a 12:00 en mm
DESCASC
Precipitaciones de 12:00 a 18:00 en mm
DESCASC
Precipitaciones de 18:00 a 24:00 en mm
DESCASC
20-05-2018 24.4 (15:40) 12.5 (06:50) 18.4 10.28 (16:10) 6.67 (13:40) 0 0 0 0 0
19-05-2018 25.5 (13:00) 11.5 (06:00) 18.5 9.17 (22:20) 5 (22:20) 2.6 0 0 2.4 0.2
18-05-2018 24.5 (17:40) 11.3 (00:00) 17.9 10 (15:00) 6.11 (14:50) 0 0 0 0 0
17-05-2018 24.1 (16:50) 13.3 (00:00) 18.7 11.11 (11:00) 6.11 (11:00) 0 0 0 0 0
16-05-2018 23.6 (15:30) 14.2 (00:00) 18.9 16.11 (01:00) 8.61 (01:20) 0 0 0 0 0
15-05-2018 19.7 (18:30) 10.2 (00:00) 15 16.67 (19:40) 9.44 (19:40) 0 0 0 0 0
14-05-2018 17.4 (13:10) 10.2 (00:00) 13.8 15.28 (18:20) 8.89 (18:30) 1 0 0 1 0
13-05-2018 17.2 (16:20) 7.2 (00:00) 12.2 24.17 (02:40) 11.67 (09:00) 13 10 3 0 0
12-05-2018 22.6 (14:20) 9.9 (00:00) 16.3 21.11 (23:59) 11.67 (23:30) 12.4 0 0 0 12.4
11-05-2018 25.4 (16:20) 14.4 (23:59) 19.9 7.5 (18:10) 4.17 (02:20) 0 0 0 0 0
10-05-2018 22 (14:30) 15.6 (00:00) 18.8 21.11 (04:00) 11.67 (04:10) 0 0 0 0 0
09-05-2018 23.2 (14:30) 18 (00:00) 20.6 18.61 (07:40) 11.11 (07:30) 0 0 0 0 0
08-05-2018 25.3 (12:10) 14.5 (00:00) 19.9 13.61 (22:30) 6.67 (22:00) 0 0 0 0 0
07-05-2018 25.8 (16:30) 15.1 (00:00) 20.4 7.78 (21:30) 4.72 (17:10) 1 0 0.6 0 0.4
06-05-2018 25.6 (15:20) 13.2 (00:00) 19.4 10 (07:00) 5 (07:00) 2.2 0 1.6 0.2 0.4
05-05-2018 23.2 (18:30) 15 (00:00) 19.1 18.33 (03:10) 8.33 (03:00) 0 0 0 0 0
04-05-2018 20.5 (15:40) 15.1 (00:00) 17.8 23.61 (05:10) 12.78 (04:30) 0 0 0 0 0
03-05-2018 19.3 (16:00) 13.2 (00:00) 16.2 28.33 (22:10) 14.44 (22:10) 0 0 0 0 0
02-05-2018 21.9 (16:20) 10.7 (00:00) 16.3 17.5 (22:50) 10.28 (21:50) 0 0 0 0 0
01-05-2018 17.5 (16:50) 9.9 (04:20) 13.7 18.06 (21:40) 8.89 (01:00) 0 0 0 0 0
30-04-2018 18.3 (18:10) 6.6 (00:00) 12.4 15.83 (23:10) 8.89 (23:10) 0.4 0 0 0 0.4
29-04-2018 16.4 (13:30) 8.2 (00:00) 12.3 15 (16:10) 8.06 (16:10) 9.4 0 4.2 5.2 0
28-04-2018 21.5 (14:10) 11.9 (00:00) 16.7 11.67 (16:00) 7.5 (16:00) 0 0 0 0 0
27-04-2018 22.2 (14:00) 10.7 (00:00) 16.5 7.78 (14:40) 4.17 (15:10) 0 0 0 0 0
26-04-2018 24.5 (16:00) 12.7 (00:00) 18.6 16.94 (07:30) 7.22 (05:30) 0 0 0 0 0
25-04-2018 26.9 (14:30) 13.5 (00:00) 20.2 7.78 (08:30) 4.17 (11:20) 0 0 0 0 0
24-04-2018 26 (15:40) 14.2 (00:00) 20.1 7.22 (13:00) 4.17 (12:50) 0 0 0 0 0
23-04-2018 22.8 (14:20) 12.9 (00:00) 17.8 6.11 (23:59) 4.17 (23:59) 0 0 0 0 0
22-04-2018 25.1 (17:30) 11.4 (00:00) 18.3 5.83 (18:00) 3.89 (04:20) 0 0 0 0 0

Gráficas

Temp. máximas Temp. mínimas Temp. medias Precipitaciones Rachas de viento máximas Velocidades máximas media en intervalos de 10 minutos

Datos horarios

Fecha y hora oficial Temperatura (ºC) Velocidad del viento (km/h) Dirección del viento Racha (km/h) Dirección de racha Precipitación (mm) Presión (hPa) Tendencia (hPa) Humedad (%)
2018-05-21 23:00:00 16.7 3 Norte 8 Norte 0 -- -- 83
2018-05-21 22:00:00 17.7 4 Este 8 Norte 0 -- -- 79
2018-05-21 21:00:00 19.6 5 Oeste 17 Sudoeste 0 -- -- 73
2018-05-21 20:00:00 20.7 11 Sur 17 Sur 0 -- -- 62
2018-05-21 19:00:00 21 10 Sur 18 Sur 0 -- -- 64
2018-05-21 18:00:00 22.2 10 Sur 23 Sur 0 -- -- 55
2018-05-21 17:00:00 23.1 11 Sudeste 28 Sur 0 -- -- 50
2018-05-21 16:00:00 23.8 14 Sudeste 27 Sur 0 -- -- 49
2018-05-21 15:00:00 23.4 7 Sudeste 21 Sudeste 0 -- -- 51
2018-05-21 14:00:00 22.4 7 Sur 19 Sudeste 0 -- -- 53
2018-05-21 13:00:00 22.4 11 Sudeste 23 Sur 0 -- -- 53
2018-05-21 12:00:00 22.6 15 Sudeste 25 Este 0 -- -- 49
2018-05-21 11:00:00 21.7 9 Sur 17 Sur 0 -- -- 56
2018-05-21 10:00:00 20.4 6 Sur 10 Sur 0 -- -- 62
2018-05-21 09:00:00 17 5 Sur 8 Sudeste 0 -- -- 75
2018-05-21 08:00:00 14.9 3 Noroeste 10 Nordeste 0 -- -- 79
2018-05-21 07:00:00 11.2 2 Sudoeste 9 Nordeste 0 -- -- 93
2018-05-21 06:00:00 11.4 3 Noroeste 6 Norte 0 -- -- 92
2018-05-21 05:00:00 11.4 3 Norte 5 Norte 0 -- -- 91
2018-05-21 04:00:00 12.6 4 Nordeste 17 Nordeste 0 -- -- 85
2018-05-21 03:00:00 12.6 9 Nordeste 13 Nordeste 0 -- -- 84
2018-05-21 02:00:00 12.4 5 Nordeste 10 Norte 0 -- -- 85
2018-05-21 01:00:00 12.9 4 Nordeste 8 Norte 0 -- -- 84
2018-05-21 00:00:00 13.5 2 Norte 10 Nordeste 0 -- -- 82
2018-05-20 23:00:00 14.4 5 Norte 8 Este 0 -- -- 81
2018-05-20 22:00:00 16.1 5 Nordeste 8 Nordeste 0 -- -- 76
2018-05-20 21:00:00 19.1 2 Oeste 17 Sudoeste 0 -- -- 66
2018-05-20 20:00:00 21.2 11 Sudoeste 15 Sudoeste 0 -- -- 55
2018-05-20 19:00:00 22 10 Este 22 Este 0 -- -- 48
2018-05-20 18:00:00 22.4 14 Este 29 Este 0 -- -- 46
2018-05-20 17:00:00 24 16 Este 37 Este 0 -- -- 42
2018-05-20 16:00:00 24.2 20 Este 35 Este 0 -- -- 44
2018-05-20 15:00:00 24.2 20 Este 35 Este 0 -- -- 43
2018-05-20 14:00:00 23.9 19 Este 37 Este 0 -- -- 47
2018-05-20 13:00:00 23.8 19 Este 32 Este 0 -- -- 48
2018-05-20 12:00:00 23.4 15 Nordeste 26 Nordeste 0 -- -- 48
2018-05-20 11:00:00 22.7 17 Nordeste 31 Este 0 -- -- 50
2018-05-20 10:00:00 21.8 6 Oeste 12 Noroeste 0 -- -- 56
2018-05-20 09:00:00 19.1 2 Sur 8 Oeste 0 -- -- 72
2018-05-20 08:00:00 16.2 2 Noroeste 10 Norte 0 -- -- 81
2018-05-20 07:00:00 12.8 4 Nordeste 10 Norte 0 -- -- 92
2018-05-20 06:00:00 12.9 6 Norte 12 Noroeste 0 -- -- 90
2018-05-20 05:00:00 13 5 Nordeste 12 Nordeste 0 -- -- 89
2018-05-20 04:00:00 14 4 Norte 9 Sudoeste 0 -- -- 85
2018-05-20 03:00:00 14.4 3 Sudeste 10 Nordeste 0 -- -- 84
2018-05-20 02:00:00 16.2 3 Noroeste 17 Norte 0 -- -- 77
2018-05-20 01:00:00 18.3 6 Norte 18 Nordeste 0 -- -- 68
2018-05-20 00:00:00 19.3 10 Norte 30 Norte 0 -- -- 64
2018-05-19 23:00:00 19.8 10 Norte 33 Norte 0.2 -- -- 63
2018-05-19 22:00:00 17.2 5 Norte 18 Norte 0 -- -- 74
2018-05-19 21:00:00 19.1 4 Sudeste 10 Sur 0 -- -- 81
2018-05-19 20:00:00 20.1 0 Calma 8 Sur 0 -- -- 75
2018-05-19 19:00:00 18.9 2 Sur 9 Sur 0 -- -- 80
2018-05-19 18:00:00 18.3 0 Calma 12 Noroeste 0 -- -- 85
2018-05-19 17:00:00 18.6 8 Noroeste 24 Noroeste 0 -- -- 73
2018-05-19 16:00:00 19 3 Norte 21 Noroeste 1.6 -- -- 78
2018-05-19 15:00:00 23 12 Este 22 Sur 0.8 -- -- 64
2018-05-19 14:00:00 24.2 6 Sur 18 Nordeste 0 -- -- 48
2018-05-19 13:00:00 25.5 11 Noroeste 28 Norte 0 -- -- 42
2018-05-19 12:00:00 23.9 9 Nordeste 18 Nordeste 0 -- -- 46
2018-05-19 11:00:00 23.9 5 Sudoeste 13 Sudoeste 0 -- -- 47
2018-05-19 10:00:00 21.6 6 Sudoeste 10 Sudoeste 0 -- -- 58
2018-05-19 09:00:00 18.7 0 Calma 8 Oeste 0 -- -- 68
2018-05-19 08:00:00 16.3 0 Calma 8 Noroeste 0 -- -- 79
2018-05-19 07:00:00 11.8 3 Nordeste 8 Nordeste 0 -- -- 92
2018-05-19 06:00:00 11.5 5 Nordeste 9 Noroeste 0 -- -- 91
2018-05-19 05:00:00 12.4 3 Nordeste 14 Norte 0 -- -- 92
2018-05-19 04:00:00 12.9 4 Nordeste 13 Norte 0 -- -- 90
2018-05-19 03:00:00 12.8 4 Norte 13 Norte 0 -- -- 92
2018-05-19 02:00:00 12.8 5 Nordeste 9 Norte 0 -- -- 92
2018-05-19 01:00:00 13.1 4 Norte 10 Norte 0 -- -- 90
2018-05-19 00:00:00 13.8 0 Calma 10 Norte 0 -- -- 87
2018-05-18 23:00:00 14.5 4 Norte 12 Nordeste 0 -- -- 85
2018-05-18 22:00:00 16 4 Nordeste 8 Nordeste 0 -- -- 82
2018-05-18 21:00:00 18.6 2 Sur 8 Oeste 0 -- -- 74
2018-05-18 20:00:00 20.6 4 Sudoeste 10 Sur 0 -- -- 65
2018-05-18 19:00:00 21.7 9 Sur 22 Sudoeste 0 -- -- 56
2018-05-18 18:00:00 23.5 17 Sudoeste 30 Sudoeste 0 -- -- 51
2018-05-18 17:00:00 23.7 9 Nordeste 34 Este 0 -- -- 48
2018-05-18 16:00:00 24.4 15 Este 31 Este 0 -- -- 47
2018-05-18 15:00:00 23.6 21 Este 36 Nordeste 0 -- -- 48
2018-05-18 14:00:00 23.4 19 Este 27 Este 0 -- -- 50
2018-05-18 13:00:00 23.1 13 Este 24 Este 0 -- -- 51
2018-05-18 12:00:00 22.5 9 Este 18 Nordeste 0 -- -- 55
2018-05-18 11:00:00 21.3 5 Este 12 Este 0 -- -- 57
2018-05-18 10:00:00 20 3 Norte 12 Noroeste 0 -- -- 64
2018-05-18 09:00:00 18.1 0 Calma 5 Sur 0 -- -- 71
2018-05-18 08:00:00 15.3 4 Nordeste 7 Norte 0 -- -- 83
2018-05-18 07:00:00 11.8 3 Nordeste 5 Norte 0 -- -- 91
2018-05-18 06:00:00 12.4 3 Norte 10 Nordeste 0 -- -- 86
2018-05-18 05:00:00 11.3 0 Calma 5 Norte 0 -- -- 89
2018-05-18 04:00:00 12.3 0 Calma 13 Nordeste 0 -- -- 85
2018-05-18 03:00:00 12.7 8 Nordeste 13 Nordeste 0 -- -- 84
2018-05-18 02:00:00 12.5 3 Nordeste 9 Nordeste 0 -- -- 86
2018-05-18 01:00:00 13.2 6 Nordeste 10 Nordeste 0 -- -- 84
2018-05-18 00:00:00 13.3 4 Nordeste 12 Nordeste 0 -- -- 85
2018-05-17 23:00:00 13.6 3 Nordeste 10 Norte 0 -- -- 83
2018-05-17 22:00:00 14.6 5 Nordeste 8 Nordeste 0 -- -- 81
2018-05-17 21:00:00 16.2 5 Nordeste 17 Sudoeste 0 -- -- 74
2018-05-17 20:00:00 17.9 12 Sudoeste 20 Sudoeste 0 -- -- 67
2018-05-17 19:00:00 22.6 10 Nordeste 23 Este 0 -- -- 48
2018-05-17 18:00:00 24 9 Este 26 Este 0 -- -- 46
2018-05-17 17:00:00 24 15 Nordeste 30 Este 0 -- -- 45
2018-05-17 16:00:00 23.9 16 Nordeste 33 Este 0 -- -- 47
2018-05-17 15:00:00 23.1 21 Este 37 Este 0 -- -- 49
2018-05-17 14:00:00 23 19 Nordeste 32 Nordeste 0 -- -- 51
2018-05-17 13:00:00 22.9 14 Nordeste 24 Nordeste 0 -- -- 50
2018-05-17 12:00:00 21.5 13 Norte 36 Nordeste 0 -- -- 54
2018-05-17 11:00:00 20.6 22 Norte 40 Norte 0 -- -- 55
2018-05-17 10:00:00 19.3 15 Norte 32 Nordeste 0 -- -- 55
2018-05-17 09:00:00 19.5 6 Sur 16 Noroeste 0 -- -- 55
2018-05-17 08:00:00 17.2 3 Norte 14 Noroeste 0 -- -- 61
2018-05-17 07:00:00 15.9 5 Sudeste 15 Oeste 0 -- -- 60
2018-05-17 06:00:00 16.7 7 Noroeste 21 Noroeste 0 -- -- 57
2018-05-17 05:00:00 17.8 12 Noroeste 26 Norte 0 -- -- 53
2018-05-17 04:00:00 18.4 16 Noroeste 30 Noroeste 0 -- -- 53
2018-05-17 03:00:00 18.4 12 Noroeste 35 Noroeste 0 -- -- 53
2018-05-17 02:00:00 17.9 13 Noroeste 23 Noroeste 0 -- -- 56
2018-05-17 01:00:00 18.6 16 Noroeste 28 Norte 0 -- -- 53
2018-05-17 00:00:00 17.8 8 Sudoeste 28 Noroeste 0 -- -- 57
2018-05-16 23:00:00 18.6 17 Norte 44 Norte 0 -- -- 55
2018-05-16 22:00:00 18.7 19 Norte 44 Norte 0 -- -- 55
2018-05-16 21:00:00 19 18 Norte 36 Norte 0 -- -- 57
2018-05-16 20:00:00 20.5 23 Norte 39 Nordeste 0 -- -- 54
2018-05-16 19:00:00 22 19 Norte 37 Norte 0 -- -- 50
2018-05-16 18:00:00 23 19 Norte 39 Nordeste 0 -- -- 47
2018-05-16 17:00:00 23.5 21 Norte 48 Norte 0 -- -- 47
2018-05-16 16:00:00 23.4 21 Norte 44 Nordeste 0 -- -- 46
2018-05-16 15:00:00 23.4 21 Norte 40 Nordeste 0 -- -- 44
2018-05-16 14:00:00 21 23 Norte 39 Norte 0 -- -- 52
2018-05-16 13:00:00 20.4 14 Norte 37 Noroeste 0 -- -- 53
2018-05-16 12:00:00 18.1 18 Norte 37 Norte 0 -- -- 58
2018-05-16 11:00:00 20.8 18 Noroeste 31 Noroeste 0 -- -- 50
2018-05-16 10:00:00 19.7 15 Norte 42 Noroeste 0 -- -- 51
2018-05-16 09:00:00 18.8 6 Oeste 23 Oeste 0 -- -- 53
2018-05-16 08:00:00 17.2 13 Oeste 25 Noroeste 0 -- -- 57
2018-05-16 07:00:00 14.6 7 Sudoeste 18 Noroeste 0 -- -- 63
2018-05-16 06:00:00 14.7 11 Sur 32 Norte 0 -- -- 65
2018-05-16 05:00:00 16.5 16 Norte 30 Norte 0 -- -- 58
2018-05-16 04:00:00 16.5 9 Oeste 32 Norte 0 -- -- 61
2018-05-16 03:00:00 16.7 13 Norte 31 Norte 0 -- -- 60
2018-05-16 02:00:00 19.1 20 Norte 58 Norte 0 -- -- 50
2018-05-16 01:00:00 18.6 27 Norte 58 Norte 0 -- -- 52
2018-05-16 00:00:00 18 26 Norte 56 Noroeste 0 -- -- 55
2018-05-15 23:00:00 17.9 30 Norte 57 Norte 0 -- -- 54
2018-05-15 22:00:00 18 30 Norte 56 Norte 0 -- -- 52
2018-05-15 21:00:00 18.2 27 Norte 55 Noroeste 0 -- -- 52
2018-05-15 20:00:00 18.1 29 Norte 60 Norte 0 -- -- 53
2018-05-15 19:00:00 19.3 26 Norte 48 Norte 0 -- -- 51
2018-05-15 18:00:00 19.3 31 Norte 54 Norte 0 -- -- 50
2018-05-15 17:00:00 19 26 Norte 47 Norte 0 -- -- 51
2018-05-15 16:00:00 18.7 19 Norte 37 Noroeste 0 -- -- 52
2018-05-15 15:00:00 17.8 14 Norte 33 Noroeste 0 -- -- 52
2018-05-15 14:00:00 16.8 16 Noroeste 32 Oeste 0 -- -- 55
2018-05-15 13:00:00 15.6 12 Oeste 26 Oeste 0 -- -- 64
2018-05-15 12:00:00 15.6 4 Sudoeste 14 Sudoeste 0 -- -- 68
2018-05-15 11:00:00 14.1 6 Sur 13 Sur 0 -- -- 71
2018-05-15 10:00:00 13.2 6 Sudoeste 13 Sur 0 -- -- 74
2018-05-15 09:00:00 11.3 5 Sur 10 Sur 0 -- -- 85
2018-05-15 08:00:00 10.6 3 Nordeste 16 Norte 0 -- -- 87
2018-05-15 07:00:00 10.2 2 Sur 9 Oeste 0 -- -- 87
2018-05-15 06:00:00 10.5 4 Sudoeste 11 Sur 0 -- -- 84
2018-05-15 05:00:00 11.3 4 Sur 37 Noroeste 0 -- -- 75
2018-05-15 04:00:00 14.2 17 Norte 40 Norte 0 -- -- 58
2018-05-15 03:00:00 14.6 15 Noroeste 47 Noroeste 0 -- -- 57
2018-05-15 02:00:00 14.2 19 Noroeste 38 Noroeste 0 -- -- 58
2018-05-15 01:00:00 14.3 23 Noroeste 45 Noroeste 0 -- -- 58
2018-05-15 00:00:00 14.4 24 Noroeste 48 Noroeste 0 -- -- 54
2018-05-14 23:00:00 14.2 21 Norte 39 Noroeste 0 -- -- 53
2018-05-14 22:00:00 13.3 14 Noroeste 45 Norte 0 -- -- 55
2018-05-14 21:00:00 11.7 7 Oeste 22 Sudoeste 0 -- -- 63
2018-05-14 20:00:00 11.9 10 Sudoeste 48 Noroeste 0 -- -- 64
2018-05-14 19:00:00 13 23 Norte 55 Noroeste 0 -- -- 55
2018-05-14 18:00:00 12.1 18 Noroeste 39 Noroeste 0 -- -- 68
2018-05-14 17:00:00 12 8 Sur 19 Sur 0.2 -- -- 82
2018-05-14 16:00:00 13 2 Este 13 Nordeste 0.2 -- -- 72
2018-05-14 15:00:00 12.6 8 Norte 31 Noroeste 0.6 -- -- 72
2018-05-14 14:00:00 16.6 11 Norte 26 Oeste 0 -- -- 46
2018-05-14 13:00:00 17.2 7 Norte 23 Noroeste 0 -- -- 39
2018-05-14 12:00:00 15.8 12 Noroeste 45 Norte 0 -- -- 44
2018-05-14 11:00:00 14.3 27 Norte 46 Noroeste 0 -- -- 43
2018-05-14 10:00:00 13.3 21 Noroeste 40 Noroeste 0 -- -- 47
2018-05-14 09:00:00 12 16 Oeste 26 Oeste 0 -- -- 51
2018-05-14 08:00:00 11 14 Oeste 25 Oeste 0 -- -- 55
2018-05-14 07:00:00 10.5 7 Oeste 39 Norte 0 -- -- 54
2018-05-14 06:00:00 11.2 23 Norte 42 Norte 0 -- -- 48
2018-05-14 05:00:00 11.6 18 Norte 45 Norte 0 -- -- 44
2018-05-14 04:00:00 11.6 24 Norte 45 Norte 0 -- -- 47
2018-05-14 03:00:00 11.9 18 Norte 37 Norte 0 -- -- 51
2018-05-14 02:00:00 12 15 Noroeste 37 Noroeste 0 -- -- 51
2018-05-14 01:00:00 11.7 10 Noroeste 30 Norte 0 -- -- 56
2018-05-11 20:00:00 -- -- -- -- -- -- -- -- --
2018-05-11 19:00:00 23.3 6 Norte 27 Sudoeste 0 -- -- 56
2018-05-11 18:00:00 24.7 6 Sur 20 Sudeste 0 -- -- 50
2018-05-11 17:00:00 24.8 12 Sudeste 21 Sudeste 0 -- -- 49
2018-05-11 16:00:00 25.2 10 Sudeste 21 Sur 0 -- -- 48
2018-05-11 15:00:00 25.1 6 Sur 25 Sur 0 -- -- 47
2018-05-11 14:00:00 24 9 Sur 20 Sur 0 -- -- 50
2018-05-11 13:00:00 22.6 6 Sudoeste 18 Sur 0 -- -- 53
2018-05-11 12:00:00 21.2 7 Sur 18 Sur 0 -- -- 56
2018-05-11 11:00:00 20 6 Sudoeste 18 Sur 0 -- -- 60
2018-05-11 10:00:00 18.6 9 Sur 17 Sur 0 -- -- 65
2018-05-11 09:00:00 17.7 4 Sur 8 Sur 0 -- -- 62
2018-05-11 08:00:00 15.8 2 Nordeste 8 Este 0 -- -- 61
2018-05-11 07:00:00 14.9 6 Nordeste 13 Nordeste 0 -- -- 63
2018-05-11 06:00:00 15.4 6 Nordeste 10 Noroeste 0 -- -- 63
2018-05-11 05:00:00 16 7 Noroeste 14 Noroeste 0 -- -- 59
2018-05-11 04:00:00 16.4 10 Noroeste 20 Oeste 0 -- -- 59
2018-05-11 03:00:00 16.8 15 Noroeste 24 Oeste 0 -- -- 56
2018-05-11 02:00:00 17 13 Oeste 22 Oeste 0 -- -- 56
2018-05-11 01:00:00 17.3 7 Oeste 23 Noroeste 0 -- -- 51
2018-05-11 00:00:00 17.7 10 Nordeste 36 Norte 0 -- -- 50
2018-05-10 23:00:00 17.8 18 Norte 55 Norte 0 -- -- 50
2018-05-10 22:00:00 17.7 27 Norte 66 Nordeste 0 -- -- 50
2018-05-10 21:00:00 18.3 24 Norte 50 Norte 0 -- -- 47
2018-05-10 20:00:00 19 23 Norte 51 Norte 0 -- -- 46
2018-05-10 19:00:00 20.1 21 Norte 44 Norte 0 -- -- 45
2018-05-10 18:00:00 20.4 18 Norte 42 Norte 0 -- -- 45
2018-05-10 17:00:00 20.8 28 Norte 50 Norte 0 -- -- 41
2018-05-10 16:00:00 20.9 23 Norte 50 Norte 0 -- -- 45
2018-05-10 15:00:00 21.2 24 Norte 45 Noroeste 0 -- -- 44
2018-05-10 14:00:00 20.5 17 Norte 51 Norte 0 -- -- 43
2018-05-10 13:00:00 20.6 22 Norte 43 Norte 0 -- -- 44
2018-05-10 12:00:00 19.7 18 Norte 41 Norte 0 -- -- 43
2018-05-10 11:00:00 20.1 18 Norte 36 Norte 0 -- -- 42
2018-05-10 10:00:00 18.6 12 Norte 36 Norte 0 -- -- 48
2018-05-10 09:00:00 17.2 18 Norte 49 Norte 0 -- -- 50
2018-05-10 08:00:00 15.9 22 Norte 53 Norte 0 -- -- 55
2018-05-10 07:00:00 16 31 Norte 63 Norte 0 -- -- 60
2018-05-10 06:00:00 17.2 31 Norte 68 Norte 0 -- -- 53
2018-05-10 05:00:00 16.7 40 Norte 75 Norte 0 -- -- 57
2018-05-10 04:00:00 17.2 39 Norte 76 Norte 0 -- -- 61
2018-05-10 03:00:00 17.9 28 Norte 58 Norte 0 -- -- 61
2018-05-10 02:00:00 18.4 18 Noroeste 51 Noroeste 0 -- -- 60
2018-05-10 01:00:00 18.9 17 Noroeste 42 Norte 0 -- -- 57
2018-05-10 00:00:00 18.5 6 Sur 26 Noroeste 0 -- -- 58
2018-05-09 23:00:00 19.3 10 Norte 36 Noroeste 0 -- -- 58
2018-05-09 22:00:00 19.3 15 Noroeste 30 Noroeste 0 -- -- 58
2018-05-09 21:00:00 19.5 14 Norte 31 Norte 0 -- -- 59
2018-05-09 20:00:00 21.2 11 Norte 21 Norte 0 -- -- 54
2018-05-09 19:00:00 22.1 6 Sur 10 Sudoeste 0 -- -- 57
2018-05-09 18:00:00 20.4 6 Este 12 Este 0 -- -- 62
2018-05-09 17:00:00 18.1 4 Sudeste 19 Sur 0 -- -- 74
2018-05-09 16:00:00 20.7 4 Noroeste 26 Nordeste 0 -- -- 51
2018-05-09 15:00:00 21.6 17 Norte 40 Norte 0 -- -- 48
2018-05-09 14:00:00 21.5 18 Norte 37 Norte 0 -- -- 46
2018-05-09 13:00:00 22.1 14 Noroeste 27 Noroeste 0 -- -- 44
2018-05-09 12:00:00 19.8 17 Oeste 38 Noroeste 0 -- -- 51
2018-05-09 11:00:00 18.9 20 Noroeste 44 Noroeste 0 -- -- 54
2018-05-09 10:00:00 18.3 25 Noroeste 43 Norte 0 -- -- 55
2018-05-09 09:00:00 18.6 21 Noroeste 50 Norte 0 -- -- 55
2018-05-09 08:00:00 19 33 Norte 67 Norte 0 -- -- 54
2018-05-09 07:00:00 18.8 27 Norte 50 Norte 0 -- -- 56
2018-05-09 06:00:00 19 31 Norte 54 Norte 0 -- -- 58
2018-05-09 05:00:00 18.6 22 Norte 43 Norte 0 -- -- 61
2018-05-09 04:00:00 18.6 17 Norte 45 Noroeste 0 -- -- 62
2018-05-09 03:00:00 18.9 26 Norte 44 Noroeste 0 -- -- 60
2018-05-09 02:00:00 19.2 13 Noroeste 37 Norte 0 -- -- 59
2018-05-09 01:00:00 19.4 21 Noroeste 43 Noroeste 0 -- -- 57
2018-05-09 00:00:00 19.5 4 Noroeste 32 Oeste 0 -- -- 58
2018-05-08 23:00:00 20.4 10 Noroeste 49 Noroeste 0 -- -- 53
2018-05-08 22:00:00 20.9 24 Norte 49 Norte 0 -- -- 53
2018-05-08 21:00:00 20 20 Norte 39 Norte 0 -- -- 63
2018-05-08 20:00:00 21.1 4 Sur 18 Sur 0 -- -- 69
2018-05-08 19:00:00 22.2 7 Sudoeste 15 Sudoeste 0 -- -- 66
2018-05-08 18:00:00 21.3 8 Sur 18 Sur 0 -- -- 68
2018-05-08 17:00:00 21.5 8 Sur 21 Sudoeste 0 -- -- 65
2018-05-08 16:00:00 22.6 14 Sudoeste 25 Nordeste 0 -- -- 61
2018-05-08 15:00:00 22.9 15 Norte 32 Nordeste 0 -- -- 55
2018-05-08 14:00:00 24.4 15 Nordeste 30 Norte 0 -- -- 51
2018-05-08 13:00:00 24.6 11 Norte 26 Sudeste 0 -- -- 50
2018-05-08 12:00:00 24.7 9 Oeste 19 Sudoeste 0 -- -- 47
2018-05-08 11:00:00 22.5 10 Noroeste 24 Norte 0 -- -- 55
2018-05-08 10:00:00 19.7 3 Sudoeste 10 Oeste 0 -- -- 76
2018-05-08 09:00:00 19.2 5 Oeste 9 Oeste 0 -- -- 75
2018-05-08 08:00:00 15.9 4 Norte 10 Nordeste 0 -- -- 92
2018-05-08 07:00:00 14.5 0 Calma 5 Nordeste 0 -- -- 94
2018-05-08 06:00:00 14.7 2 Norte 4 Norte 0 -- -- 94
2018-05-08 05:00:00 14.6 0 Calma 5 Noroeste 0 -- -- 93
2018-05-08 04:00:00 15 0 Calma 10 Sur 0 -- -- 90
2018-05-08 03:00:00 15.7 2 Sudeste 5 Sur 0 -- -- 90
2018-05-08 02:00:00 16.3 3 Norte 10 Sudoeste 0 -- -- 87
2018-05-08 01:00:00 17.7 3 Norte 12 Nordeste 0 -- -- 81
2018-05-08 00:00:00 17.5 8 Nordeste 15 Nordeste 0 -- -- 81
2018-05-07 23:00:00 17.5 3 Nordeste 17 Noroeste 0 -- -- 82
2018-05-07 22:00:00 18.3 7 Nordeste 28 Este 0 -- -- 77
2018-05-07 21:00:00 18.5 0 Calma 4 Nordeste 0 -- -- 83
2018-05-07 20:00:00 19.7 0 Calma 15 Noroeste 0 -- -- 72
2018-05-07 19:00:00 19.5 9 Noroeste 21 Oeste 0.4 -- -- 76
2018-05-07 18:00:00 22.2 6 Oeste 26 Sur 0 -- -- 61
2018-05-07 17:00:00 25.2 15 Sur 23 Sur 0 -- -- 51
2018-05-07 16:00:00 25.4 11 Sur 26 Sur 0 -- -- 52
2018-05-07 15:00:00 25.1 13 Sur 24 Sur 0 -- -- 56
2018-05-07 14:00:00 25 10 Sur 19 Sur 0 -- -- 58
2018-05-07 13:00:00 24.1 10 Sudoeste 16 Sudoeste 0 -- -- 57
2018-05-07 12:00:00 22.9 6 Sudoeste 15 Sudoeste 0 -- -- 61
2018-05-07 11:00:00 21.2 5 Sudoeste 9 Oeste 0 -- -- 69
2018-05-07 10:00:00 19.5 2 Nordeste 9 Norte 0 -- -- 75
2018-05-07 09:00:00 17.4 0 Calma 6 Sur 0 -- -- 91
2018-05-07 08:00:00 16.2 2 Noroeste 14 Este 0 -- -- 93
2018-05-07 07:00:00 15.7 8 Nordeste 14 Nordeste 0.6 -- -- 91
2018-05-07 06:00:00 15.2 5 Nordeste 8 Norte 0 -- -- 93
2018-05-07 05:00:00 15.2 0 Calma 5 Sudeste 0 -- -- 92
2018-05-07 04:00:00 16.3 2 Sur 12 Este 0 -- -- 88
2018-05-07 03:00:00 16.1 2 Sudeste 15 Nordeste 0 -- -- 89
2018-05-07 02:00:00 16.7 0 Calma 20 Nordeste 0 -- -- 86
2018-05-07 01:00:00 16 8 Nordeste 13 Nordeste 0 -- -- 90
2018-05-07 00:00:00 16.1 3 Nordeste 15 Noroeste 0.2 -- -- 86
2018-05-06 23:00:00 16.4 4 Oeste 10 Oeste 0.2 -- -- 85
2018-05-06 22:00:00 17.1 0 Calma 6 Nordeste 0 -- -- 86
2018-05-06 21:00:00 18 2 Sur 12 Sudoeste 0 -- -- 80
2018-05-06 20:00:00 19.6 8 Sudoeste 15 Sudoeste 0 -- -- 73
2018-05-06 19:00:00 22.7 5 Oeste 14 Norte 0 -- -- 61
2018-05-06 18:00:00 24.5 7 Nordeste 17 Nordeste 0 -- -- 55
2018-05-06 17:00:00 24.9 13 Este 22 Este 0 -- -- 51
2018-05-06 16:00:00 24.9 13 Este 23 Sudeste 0 -- -- 48
2018-05-06 15:00:00 25.1 5 Noroeste 13 Oeste 0.2 -- -- 51
2018-05-06 14:00:00 22.3 3 Norte 10 Noroeste 0 -- -- 63
2018-05-06 13:00:00 20.3 8 Noroeste 12 Noroeste 0 -- -- 71
2018-05-06 12:00:00 18.1 4 Sudeste 9 Sudeste 0 -- -- 84
2018-05-06 11:00:00 16.8 8 Sudoeste 15 Sudoeste 0.8 -- -- 86
2018-05-06 10:00:00 16.3 5 Sur 15 Sudeste 0.6 -- -- 85
2018-05-06 09:00:00 16.1 7 Noroeste 20 Noroeste 0 -- -- 79
2018-05-06 08:00:00 15.3 8 Noroeste 16 Noroeste 0.2 -- -- 85
2018-05-06 07:00:00 18.4 18 Sudeste 36 Sudeste 0 -- -- 61
2018-05-06 06:00:00 19.5 7 Este 15 Nordeste 0 -- -- 52
2018-05-06 05:00:00 19.3 9 Nordeste 15 Norte 0 -- -- 53
2018-05-06 04:00:00 18.6 6 Nordeste 17 Nordeste 0 -- -- 56
2018-05-06 03:00:00 17.3 12 Nordeste 16 Nordeste 0 -- -- 59
2018-05-06 02:00:00 13.7 3 Nordeste 9 Norte 0 -- -- 75
2018-05-06 01:00:00 13.8 7 Norte 9 Norte 0 -- -- 76
2018-05-06 00:00:00 15 4 Norte 9 Nordeste 0 -- -- 70
2018-05-05 23:00:00 17.2 5 Nordeste 13 Norte 0 -- -- 63
2018-05-05 22:00:00 17.4 4 Norte 7 Norte 0 -- -- 67
2018-05-05 21:00:00 19.7 4 Norte 9 Este 0 -- -- 56
2018-05-05 20:00:00 21.8 4 Sur 8 Norte 0 -- -- 53
2018-05-05 19:00:00 22.2 4 Sudoeste 13 Oeste 0 -- -- 48
2018-05-05 18:00:00 22.7 6 Sudeste 19 Nordeste 0 -- -- 48
2018-05-05 17:00:00 22.9 10 Noroeste 22 Nordeste 0 -- -- 48
2018-05-05 16:00:00 22.6 9 Nordeste 24 Nordeste 0 -- -- 48
2018-05-05 15:00:00 23.1 15 Norte 26 Nordeste 0 -- -- 46
2018-05-05 14:00:00 23 14 Norte 27 Nordeste 0 -- -- 49
2018-05-05 13:00:00 21.5 12 Norte 33 Norte 0 -- -- 51
2018-05-05 12:00:00 20.9 19 Norte 41 Noroeste 0 -- -- 52
2018-05-05 11:00:00 18.5 21 Norte 38 Norte 0 -- -- 58
2018-05-05 10:00:00 17.5 21 Norte 44 Norte 0 -- -- 61
2018-05-05 09:00:00 17.9 21 Nordeste 42 Nordeste 0 -- -- 55
2018-05-05 08:00:00 18.1 18 Norte 43 Norte 0 -- -- 55
2018-05-05 07:00:00 18 14 Norte 35 Nordeste 0 -- -- 55
2018-05-05 06:00:00 18.2 10 Oeste 36 Noroeste 0 -- -- 54
2018-05-05 05:00:00 18.1 18 Norte 47 Norte 0 -- -- 54
2018-05-05 04:00:00 18.1 12 Nordeste 66 Noroeste 0 -- -- 54
2018-05-05 03:00:00 17.8 30 Norte 57 Norte 0 -- -- 55
2018-05-05 02:00:00 17.9 14 Nordeste 35 Sudeste 0 -- -- 55
2018-05-05 01:00:00 18.1 10 Sur 48 Sudeste 0 -- -- 54
2018-05-05 00:00:00 18 10 Oeste 42 Norte 0 -- -- 53
2018-05-04 23:00:00 18.2 19 Norte 58 Norte 0 -- -- 52
2018-05-04 22:00:00 18.2 29 Norte 58 Noroeste 0 -- -- 50
2018-05-04 21:00:00 17.7 36 Norte 61 Norte 0 -- -- 51
2018-05-04 20:00:00 17.7 35 Norte 68 Noroeste 0 -- -- 51
2018-05-04 19:00:00 17.6 36 Norte 71 Norte 0 -- -- 50
2018-05-04 18:00:00 18.3 32 Norte 64 Norte 0 -- -- 48
2018-05-04 17:00:00 18.2 35 Norte 75 Norte 0 -- -- 47
2018-05-04 16:00:00 20 31 Norte 58 Noroeste 0 -- -- 44
2018-05-04 15:00:00 19 21 Norte 47 Nordeste 0 -- -- 47
2018-05-04 14:00:00 18.4 13 Nordeste 42 Nordeste 0 -- -- 48
2018-05-04 13:00:00 17.8 16 Norte 52 Norte 0 -- -- 49
2018-05-04 12:00:00 17.4 19 Norte 45 Noroeste 0 -- -- 48
2018-05-04 11:00:00 17.1 19 Norte 69 Norte 0 -- -- 48
2018-05-04 10:00:00 17 17 Oeste 51 Norte 0 -- -- 46
2018-05-04 09:00:00 16.9 23 Norte 61 Norte 0 -- -- 45
2018-05-04 08:00:00 16.5 21 Norte 75 Noroeste 0 -- -- 45
2018-05-04 07:00:00 15.8 33 Norte 77 Norte 0 -- -- 46
2018-05-04 06:00:00 15.4 25 Norte 85 Norte 0 -- -- 48
2018-05-04 05:00:00 15.2 44 Norte 80 Noroeste 0 -- -- 50
2018-05-04 04:00:00 15.3 26 Noroeste 54 Norte 0 -- -- 50
2018-05-04 03:00:00 15.2 12 Sudoeste 46 Oeste 0 -- -- 54
2018-05-04 02:00:00 15.4 14 Oeste 50 Noroeste 0 -- -- 55
2018-05-04 01:00:00 15.7 31 Noroeste 66 Noroeste 0 -- -- 55
2018-05-04 00:00:00 15.4 32 Norte 80 Norte 0 -- -- 58
2018-05-03 23:00:00 15.3 45 Norte 102 Norte 0 -- -- 60
2018-05-03 22:00:00 16.1 45 Norte 93 Noroeste 0 -- -- 56
2018-05-03 21:00:00 16.4 51 Norte 90 Noroeste 0 -- -- 54
2018-05-03 20:00:00 16.8 44 Norte 86 Norte 0 -- -- 51
2018-05-03 19:00:00 16.9 42 Noroeste 79 Norte 0 -- -- 49
2018-05-03 18:00:00 17.1 45 Norte 87 Noroeste 0 -- -- 48
2018-05-03 17:00:00 17.3 30 Norte 66 Noroeste 0 -- -- 48
2018-05-03 16:00:00 19.3 27 Norte 62 Norte 0 -- -- 43
2018-05-03 15:00:00 17.6 15 Sur 43 Sudoeste 0 -- -- 45
2018-05-03 14:00:00 17.6 21 Sudeste 51 Sur 0 -- -- 48
2018-05-03 13:00:00 16.8 21 Noroeste 67 Norte 0 -- -- 52
2018-05-03 12:00:00 17.1 28 Noroeste 68 Noroeste 0 -- -- 52
2018-05-03 11:00:00 16.7 27 Norte 67 Noroeste 0 -- -- 54
2018-05-03 10:00:00 17.1 24 Noroeste 53 Noroeste 0 -- -- 53
2018-05-03 09:00:00 16 19 Noroeste 39 Norte 0 -- -- 57
2018-05-03 08:00:00 14.3 18 Noroeste 45 Noroeste 0 -- -- 62
2018-05-03 07:00:00 13.3 19 Noroeste 44 Oeste 0 -- -- 64
2018-05-03 06:00:00 13.3 8 Sudoeste 39 Norte 0 -- -- 62
2018-05-03 05:00:00 13.5 16 Noroeste 33 Norte 0 -- -- 59
2018-05-03 04:00:00 13.4 9 Noroeste 41 Noroeste 0 -- -- 58
2018-05-03 03:00:00 13.7 25 Noroeste 63 Noroeste 0 -- -- 57
2018-05-03 02:00:00 14 30 Norte 62 Norte 0 -- -- 55
2018-05-03 01:00:00 14.4 21 Norte 59 Norte 0 -- -- 51
2018-05-03 00:00:00 15 28 Noroeste 55 Norte 0 -- -- 50
2018-05-02 23:00:00 15.6 30 Norte 63 Norte 0 -- -- 48
2018-05-02 22:00:00 16.4 37 Norte 61 Norte 0 -- -- 43
2018-05-02 21:00:00 17.2 29 Norte 57 Norte 0 -- -- 40
2018-05-02 20:00:00 18.3 26 Norte 53 Norte 0 -- -- 38
2018-05-02 19:00:00 19.9 25 Norte 49 Norte 0 -- -- 34
2018-05-02 18:00:00 20.7 28 Norte 54 Norte 0 -- -- 30
2018-05-02 17:00:00 21.2 26 Norte 51 Norte 0 -- -- 30
2018-05-02 16:00:00 21.7 22 Norte 48 Nordeste 0 -- -- 30
2018-05-02 15:00:00 21.1 19 Norte 44 Norte 0 -- -- 31
2018-05-02 14:00:00 20.4 17 Norte 40 Noroeste 0 -- -- 32
2018-05-02 13:00:00 19.4 17 Nordeste 42 Norte 0 -- -- 31
2018-05-02 12:00:00 18.2 13 Norte 33 Nordeste 0 -- -- 33
2018-05-02 11:00:00 16.5 17 Nordeste 31 Nordeste 0 -- -- 39
2018-05-02 10:00:00 15.6 17 Norte 34 Nordeste 0 -- -- 38
2018-05-02 09:00:00 14.3 12 Norte 30 Norte 0 -- -- 44
2018-05-02 08:00:00 11.8 10 Noroeste 27 Noroeste 0 -- -- 54
2018-05-02 07:00:00 11.4 22 Norte 49 Norte 0 -- -- 54
2018-05-02 06:00:00 11.3 19 Noroeste 35 Noroeste 0 -- -- 54
2018-05-02 05:00:00 11.6 18 Noroeste 35 Norte 0 -- -- 54
2018-05-02 04:00:00 12 20 Noroeste 38 Norte 0 -- -- 52
2018-05-02 03:00:00 11.8 13 Este 39 Norte 0 -- -- 49
2018-05-02 02:00:00 12.3 15 Norte 41 Norte 0 -- -- 49
2018-05-02 01:00:00 12.5 17 Norte 46 Noroeste 0 -- -- 49
2018-05-02 00:00:00 12.5 21 Norte 53 Norte 0 -- -- 50
2018-05-01 23:00:00 12.6 25 Norte 51 Noroeste 0 -- -- 49
2018-05-01 22:00:00 12.7 26 Norte 65 Noroeste 0 -- -- 49
2018-05-01 21:00:00 13.1 24 Norte 59 Noroeste 0 -- -- 50
2018-05-01 20:00:00 13.9 28 Norte 52 Noroeste 0 -- -- 45
2018-05-01 19:00:00 14.4 26 Norte 55 Norte 0 -- -- 44
2018-05-01 18:00:00 16.8 21 Norte 53 Norte 0 -- -- 38
2018-05-01 17:00:00 17.1 21 Norte 54 Nordeste 0 -- -- 42
2018-05-01 16:00:00 16.5 28 Norte 57 Norte 0 -- -- 41
2018-05-01 15:00:00 15.8 26 Norte 49 Noroeste 0 -- -- 48
2018-05-01 14:00:00 15.5 16 Norte 44 Noroeste 0 -- -- 45
2018-05-01 13:00:00 14.7 20 Norte 48 Norte 0 -- -- 46
2018-05-01 12:00:00 13.6 19 Norte 40 Noroeste 0 -- -- 50
2018-05-01 11:00:00 13.4 18 Norte 36 Norte 0 -- -- 52
2018-05-01 10:00:00 13.1 14 Norte 46 Norte 0 -- -- 53
2018-05-01 09:00:00 12.5 22 Norte 45 Norte 0 -- -- 49
2018-05-01 08:00:00 10.4 4 Sur 10 Este 0 -- -- 61
2018-05-01 07:00:00 10.4 4 Sudoeste 20 Sur 0 -- -- 61
2018-05-01 06:00:00 10.4 8 Sur 39 Norte 0 -- -- 60
2018-05-01 05:00:00 10.5 10 Norte 21 Noroeste 0 -- -- 59
2018-05-01 04:00:00 10.3 3 Este 12 Este 0 -- -- 62
2018-05-01 03:00:00 11 6 Sur 26 Nordeste 0 -- -- 60
2018-05-01 02:00:00 11.6 12 Norte 63 Norte 0 -- -- 55
2018-05-01 01:00:00 10.8 32 Norte 61 Noroeste 0 -- -- 60
2018-05-01 00:00:00 10.7 28 Norte 57 Norte 0 -- -- 65
2018-04-30 23:00:00 11.1 22 Norte 47 Norte 0 -- -- 71
2018-04-30 22:00:00 10.9 19 Norte 40 Noroeste 0.4 -- -- 81
2018-04-30 21:00:00 14.4 12 Nordeste 22 Nordeste 0 -- -- 70
2018-04-30 20:00:00 16.3 4 Sur 22 Sudoeste 0 -- -- 62
2018-04-30 19:00:00 17.6 12 Sur 30 Sudoeste 0 -- -- 54
2018-04-30 18:00:00 18 11 Este 25 Nordeste 0 -- -- 53
2018-04-30 17:00:00 17.2 12 Este 25 Este 0 -- -- 59
2018-04-30 16:00:00 17.4 14 Sudeste 30 Este 0 -- -- 58
2018-04-30 15:00:00 16.7 15 Este 35 Sudeste 0 -- -- 61
2018-04-30 14:00:00 18.1 12 Sur 26 Sur 0 -- -- 52
2018-04-30 13:00:00 17.5 10 Sur 23 Sur 0 -- -- 52
2018-04-30 12:00:00 16.1 10 Sur 20 Sudoeste 0 -- -- 57
2018-04-30 11:00:00 15.1 10 Sudoeste 17 Sur 0 -- -- 64
2018-04-30 10:00:00 13.7 6 Sudoeste 11 Sur 0 -- -- 71
2018-04-30 09:00:00 11.9 4 Sur 6 Sur 0 -- -- 78
2018-04-30 08:00:00 9 0 Calma 17 Nordeste 0 -- -- 88
2018-04-30 07:00:00 6.8 9 Nordeste 15 Nordeste 0 -- -- 92
2018-04-30 06:00:00 7 9 Nordeste 19 Nordeste 0 -- -- 90
2018-04-30 05:00:00 6.6 7 Nordeste 15 Nordeste 0 -- -- 91
2018-04-30 04:00:00 7 4 Norte 16 Nordeste 0 -- -- 90
2018-04-30 03:00:00 7.5 4 Nordeste 17 Nordeste 0 -- -- 89
2018-04-30 02:00:00 8.1 10 Nordeste 16 Nordeste 0 -- -- 87
2018-04-30 01:00:00 8.2 9 Nordeste 17 Nordeste 0 -- -- 87
2018-04-30 00:00:00 8.5 10 Nordeste 16 Nordeste 0 -- -- 86
2018-04-29 23:00:00 8.4 6 Nordeste 9 Nordeste 0 -- -- 85
2018-04-29 22:00:00 10 4 Norte 13 Sur 0 -- -- 79
2018-04-29 21:00:00 12 10 Sur 15 Sur 0 -- -- 68
2018-04-29 20:00:00 12.3 6 Sudeste 14 Nordeste 0 -- -- 73
2018-04-29 19:00:00 12.6 7 Noroeste 30 Sudoeste 0 -- -- 74
2018-04-29 18:00:00 12.6 13 Sudoeste 39 Oeste 0 -- -- 72
2018-04-29 17:00:00 14.7 14 Oeste 54 Oeste 0.2 -- -- 67
2018-04-29 16:00:00 15.3 21 Sudoeste 45 Sudoeste 0.2 -- -- 62
2018-04-29 15:00:00 13.2 5 Este 46 Sur 4.8 -- -- 86
2018-04-29 14:00:00 15.2 25 Sur 45 Sur 0 -- -- 88
2018-04-29 13:00:00 16 19 Sur 31 Sur 0 -- -- 86
2018-04-29 12:00:00 15 11 Sur 19 Sur 0.2 -- -- 91
2018-04-29 11:00:00 14.3 8 Este 34 Sur 3 -- -- 93
2018-04-29 10:00:00 14.8 8 Sur 27 Sudoeste 1 -- -- 91
2018-04-29 09:00:00 15.9 12 Sudoeste 18 Sudoeste 0 -- -- 84
2018-04-29 08:00:00 13.8 7 Sudoeste 19 Sur 0 -- -- 94
2018-04-29 07:00:00 13.1 4 Sur 12 Sudoeste 0 -- -- 93
2018-04-29 06:00:00 13.8 4 Oeste 14 Sudoeste 0 -- -- 94
2018-04-29 05:00:00 14.1 9 Sudoeste 16 Sur 0 -- -- 94
2018-04-29 04:00:00 14.4 6 Sur 10 Sur 0 -- -- 94
2018-04-29 03:00:00 13.9 2 Sudeste 7 Sudoeste 0 -- -- 93
2018-04-29 02:00:00 14.3 0 Calma 6 Sudoeste 0 -- -- 91
2018-04-29 01:00:00 15 4 Oeste 14 Sudoeste 0 -- -- 89
2018-04-29 00:00:00 15.6 9 Sur 23 Sudeste 0 -- -- 86
2018-04-28 23:00:00 15.6 8 Sur 21 Sudeste 0 -- -- 86
2018-04-28 22:00:00 15.2 0 Calma 7 Norte 0 -- -- 85
2018-04-28 21:00:00 16.1 3 Nordeste 14 Sur 0 -- -- 80
2018-04-28 20:00:00 17.3 4 Sudeste 22 Sudeste 0 -- -- 76
2018-04-28 19:00:00 17.9 13 Sur 31 Sur 0 -- -- 76
2018-04-28 18:00:00 19.8 19 Sur 34 Sur 0 -- -- 56
2018-04-28 17:00:00 20.8 22 Sur 40 Sur 0 -- -- 48
2018-04-28 16:00:00 21.1 27 Sur 42 Sur 0 -- -- 50
2018-04-28 15:00:00 21.3 22 Sur 38 Sur 0 -- -- 53
2018-04-28 14:00:00 21.2 22 Sur 35 Sudeste 0 -- -- 54
2018-04-28 13:00:00 21 18 Sur 30 Sur 0 -- -- 54
2018-04-28 12:00:00 21.1 13 Sur 22 Sur 0 -- -- 57
2018-04-28 11:00:00 20 14 Sur 24 Sur 0 -- -- 59
2018-04-28 10:00:00 18.7 8 Sudoeste 15 Sur 0 -- -- 61
2018-04-28 09:00:00 16.7 3 Sudoeste 8 Nordeste 0 -- -- 69
2018-04-28 08:00:00 13.5 2 Este 8 Nordeste 0 -- -- 79
2018-04-28 07:00:00 12 5 Nordeste 10 Nordeste 0 -- -- 82
2018-04-28 06:00:00 12.5 3 Nordeste 6 Norte 0 -- -- 81
2018-04-28 05:00:00 13.8 4 Sudoeste 19 Nordeste 0 -- -- 75
2018-04-28 04:00:00 14.2 13 Nordeste 18 Nordeste 0 -- -- 72
2018-04-28 03:00:00 12.8 4 Nordeste 11 Nordeste 0 -- -- 77
2018-04-28 02:00:00 12.9 5 Nordeste 14 Nordeste 0 -- -- 77
2018-04-28 01:00:00 12.8 5 Nordeste 14 Norte 0 -- -- 76
2018-04-28 00:00:00 13.3 2 Norte 10 Nordeste 0 -- -- 74
2018-04-27 23:00:00 14.2 4 Nordeste 12 Nordeste 0 -- -- 73
2018-04-27 22:00:00 15.1 3 Norte 13 Nordeste 0 -- -- 71
2018-04-27 21:00:00 15.9 3 Nordeste 5 Norte 0 -- -- 68
2018-04-27 20:00:00 17.9 3 Sudeste 9 Sur 0 -- -- 59
2018-04-27 19:00:00 18.7 7 Sur 16 Sur 0 -- -- 55
2018-04-27 18:00:00 20.7 11 Sudoeste 19 Sur 0 -- -- 51
2018-04-27 17:00:00 21.2 10 Sudoeste 24 Sudoeste 0 -- -- 48
2018-04-27 16:00:00 21.6 14 Sudoeste 23 Sur 0 -- -- 48
2018-04-27 15:00:00 22.1 12 Sur 28 Sur 0 -- -- 46
2018-04-27 14:00:00 22.2 10 Sudeste 19 Sur 0 -- -- 46
2018-04-27 13:00:00 21.2 12 Sur 22 Sudeste 0 -- -- 46
2018-04-27 12:00:00 21.1 11 Sudoeste 19 Sudoeste 0 -- -- 41
2018-04-27 11:00:00 20.2 7 Oeste 12 Noroeste 0 -- -- 40
2018-04-27 10:00:00 19 3 Oeste 9 Sur 0 -- -- 41
2018-04-27 09:00:00 16.8 3 Sur 5 Sudeste 0 -- -- 50
2018-04-27 08:00:00 12.5 4 Norte 8 Nordeste 0 -- -- 64
2018-04-27 07:00:00 10.7 5 Nordeste 11 Nordeste 0 -- -- 63
2018-04-27 06:00:00 11.1 4 Norte 18 Nordeste 0 -- -- 60
2018-04-27 05:00:00 11.4 3 Nordeste 12 Nordeste 0 -- -- 58
2018-04-27 04:00:00 11.9 2 Norte 17 Este 0 -- -- 55
2018-04-27 03:00:00 12.5 4 Nordeste 18 Nordeste 0 -- -- 52
2018-04-27 02:00:00 12.7 2 Nordeste 13 Nordeste 0 -- -- 52
2018-04-27 01:00:00 13.2 2 Norte 11 Nordeste 0 -- -- 48
2018-04-27 00:00:00 12.7 3 Nordeste 11 Noroeste 0 -- -- 49
2018-04-26 23:00:00 14 0 Calma 10 Nordeste 0 -- -- 49
2018-04-26 22:00:00 17.2 4 Noroeste 20 Norte 0 -- -- 39
2018-04-26 21:00:00 17.8 12 Sur 32 Noroeste 0 -- -- 38
2018-04-26 20:00:00 19.8 17 Norte 31 Noroeste 0 -- -- 38
2018-04-26 19:00:00 21.7 19 Noroeste 37 Norte 0 -- -- 35
2018-04-26 18:00:00 23.2 17 Noroeste 30 Noroeste 0 -- -- 35
2018-04-26 17:00:00 24 15 Norte 30 Nordeste 0 -- -- 29
2018-04-26 16:00:00 24.5 10 Norte 28 Nordeste 0 -- -- 30
2018-04-26 15:00:00 23.9 9 Norte 31 Noroeste 0 -- -- 28
2018-04-26 14:00:00 22.9 11 Norte 34 Noroeste 0 -- -- 35
2018-04-26 13:00:00 22.3 13 Oeste 28 Noroeste 0 -- -- 41
2018-04-26 12:00:00 21 13 Noroeste 30 Noroeste 0 -- -- 46
2018-04-26 11:00:00 19.8 13 Noroeste 33 Noroeste 0 -- -- 52
2018-04-26 10:00:00 19 11 Sudoeste 20 Sur 0 -- -- 55
2018-04-26 09:00:00 17.8 12 Sur 27 Nordeste 0 -- -- 59
2018-04-26 08:00:00 16.7 23 Norte 61 Norte 0 -- -- 61
2018-04-26 07:00:00 16.6 17 Nordeste 57 Norte 0 -- -- 61
2018-04-26 06:00:00 17.1 19 Norte 51 Norte 0 -- -- 60
2018-04-26 05:00:00 17.5 21 Norte 45 Norte 0 -- -- 61
2018-04-26 04:00:00 13.8 5 Sudeste 10 Sur 0 -- -- 81
2018-04-26 03:00:00 13.5 3 Noroeste 9 Norte 0 -- -- 84
2018-04-26 02:00:00 13.9 0 Calma 8 Norte 0 -- -- 83
2018-04-26 01:00:00 14.9 3 Noroeste 9 Norte 0 -- -- 80
2018-04-26 00:00:00 15.5 3 Norte 9 Sudoeste 0 -- -- 79
2018-04-25 23:00:00 17 3 Sur 13 Norte 0 -- -- 74
2018-04-25 22:00:00 17 4 Nordeste 9 Nordeste 0 -- -- 78
2018-04-25 21:00:00 18.1 3 Norte 8 Sur 0 -- -- 79
2018-04-25 20:00:00 19.6 4 Sudeste 13 Sudoeste 0 -- -- 75
2018-04-25 19:00:00 21.8 12 Sur 18 Sudoeste 0 -- -- 69
2018-04-25 18:00:00 24.4 13 Sudoeste 19 Sudoeste 0 -- -- 55
2018-04-25 17:00:00 26 12 Sur 22 Sudoeste 0 -- -- 50
2018-04-25 16:00:00 26.9 10 Sudoeste 21 Sudoeste 0 -- -- 47
2018-04-25 15:00:00 26.6 12 Sur 19 Sur 0 -- -- 48
2018-04-25 14:00:00 26.3 10 Sur 19 Sur 0 -- -- 50
2018-04-25 13:00:00 25.9 9 Sudoeste 18 Sudoeste 0 -- -- 51
2018-04-25 12:00:00 25.5 9 Sudoeste 27 Nordeste 0 -- -- 51
2018-04-25 11:00:00 24.4 15 Nordeste 24 Nordeste 0 -- -- 53
2018-04-25 10:00:00 23.3 6 Nordeste 15 Nordeste 0 -- -- 55
2018-04-25 09:00:00 17 4 Oeste 28 Sur 0 -- -- 76
2018-04-25 08:00:00 15.8 3 Noroeste 15 Nordeste 0 -- -- 76
2018-04-25 07:00:00 14.1 4 Oeste 15 Nordeste 0 -- -- 81
2018-04-25 06:00:00 14.2 7 Norte 14 Norte 0 -- -- 83
2018-04-25 05:00:00 13.8 3 Norte 6 Norte 0 -- -- 84
2018-04-25 04:00:00 14.6 4 Nordeste 10 Norte 0 -- -- 81
2018-04-25 03:00:00 14.9 5 Nordeste 11 Nordeste 0 -- -- 80
2018-04-25 02:00:00 15 5 Nordeste 10 Nordeste 0 -- -- 80
2018-04-25 01:00:00 15.2 3 Nordeste 12 Nordeste 0 -- -- 79
2018-04-25 00:00:00 15.8 8 Nordeste 12 Norte 0 -- -- 77
2018-04-24 23:00:00 16.4 3 Norte 8 Norte 0 -- -- 75
2018-04-24 22:00:00 17.1 5 Nordeste 9 Nordeste 0 -- -- 72
2018-04-24 21:00:00 18.6 4 Norte 5 Nordeste 0 -- -- 69
2018-04-24 20:00:00 21.9 4 Sudeste 10 Sudoeste 0 -- -- 55
2018-04-24 19:00:00 23.2 7 Sudoeste 14 Sur 0 -- -- 50
2018-04-24 18:00:00 24 9 Sur 19 Sur 0 -- -- 48
2018-04-24 17:00:00 24.9 10 Sudoeste 23 Sur 0 -- -- 47
2018-04-24 16:00:00 25.2 15 Sur 25 Sur 0 -- -- 51
2018-04-24 15:00:00 25.8 13 Sur 22 Sur 0 -- -- 46
2018-04-24 14:00:00 25.3 13 Sur 24 Sur 0 -- -- 49
2018-04-24 13:00:00 25.2 15 Sur 26 Sur 0 -- -- 43
2018-04-24 12:00:00 24.7 11 Sur 19 Sur 0 -- -- 50
2018-04-24 11:00:00 23.7 6 Sudoeste 11 Sudoeste 0 -- -- 52
2018-04-24 10:00:00 22.2 5 Sudoeste 9 Sur 0 -- -- 57
2018-04-24 09:00:00 19.9 3 Sudeste 16 Nordeste 0 -- -- 62
2018-04-24 08:00:00 16 3 Norte 15 Nordeste 0 -- -- 74
2018-04-24 07:00:00 14.5 8 Nordeste 15 Nordeste 0 -- -- 80
2018-04-24 06:00:00 15.1 5 Norte 12 Nordeste 0 -- -- 77
2018-04-24 05:00:00 16.7 7 Nordeste 15 Nordeste 0 -- -- 68
2018-04-24 04:00:00 15.8 5 Nordeste 14 Nordeste 0 -- -- 70
2018-04-24 03:00:00 16.8 10 Nordeste 16 Nordeste 0 -- -- 70
2018-04-24 02:00:00 16.4 5 Nordeste 8 Nordeste 0 -- -- 75
2018-04-24 01:00:00 17.5 4 Norte 22 Nordeste 0 -- -- 72
2018-04-24 00:00:00 17.9 15 Nordeste 22 Nordeste 0 -- -- 71
2018-04-23 23:00:00 17.3 9 Nordeste 19 Nordeste 0 -- -- 77
2018-04-23 22:00:00 16.6 3 Nordeste 10 Nordeste 0 -- -- 83
2018-04-23 21:00:00 17.4 3 Norte 7 Sudoeste 0 -- -- 80
2018-04-23 20:00:00 19.3 4 Sur 6 Sur 0 -- -- 71
2018-04-23 19:00:00 19.9 4 Sudoeste 9 Sudoeste 0 -- -- 66
2018-04-23 18:00:00 20 3 Sudoeste 12 Sur 0 -- -- 66
2018-04-23 17:00:00 20.7 9 Sudoeste 14 Sur 0 -- -- 66
2018-04-23 16:00:00 21.7 6 Sudoeste 12 Sudoeste 0 -- -- 57
2018-04-23 15:00:00 22.5 8 Sur 14 Sur 0 -- -- 56
2018-04-23 14:00:00 22.5 8 Sudoeste 18 Sur 0 -- -- 54
2018-04-23 13:00:00 22.1 8 Sudoeste 15 Sudoeste 0 -- -- 56
2018-04-23 12:00:00 21.6 8 Sudoeste 16 Sur 0 -- -- 58
2018-04-23 11:00:00 20.2 6 Sudoeste 12 Sudoeste 0 -- -- 61
2018-04-23 10:00:00 18.3 5 Sur 8 Sudoeste 0 -- -- 69
2018-04-23 09:00:00 16.6 0 Calma 10 Nordeste 0 -- -- 75
2018-04-23 08:00:00 14.2 8 Nordeste 13 Nordeste 0 -- -- 84
2018-04-23 07:00:00 13.4 8 Nordeste 14 Nordeste 0 -- -- 85
2018-04-23 06:00:00 13 7 Norte 14 Norte 0 -- -- 79
2018-04-23 05:00:00 13.1 5 Nordeste 13 Norte 0 -- -- 80
2018-04-23 04:00:00 13.4 5 Nordeste 12 Nordeste 0 -- -- 79
2018-04-23 03:00:00 14.4 6 Nordeste 17 Nordeste 0 -- -- 77
2018-04-23 02:00:00 14.3 10 Nordeste 16 Nordeste 0 -- -- 75
2018-04-23 01:00:00 14.5 10 Nordeste 15 Nordeste 0 -- -- 74
2018-04-23 00:00:00 14.7 4 Nordeste 12 Nordeste 0 -- -- 75
2018-04-22 23:00:00 15.6 7 Nordeste 13 Nordeste 0 -- -- 72
2018-04-22 22:00:00 16.8 4 Norte 10 Nordeste 0 -- -- 72
2018-04-22 21:00:00 17.9 3 Nordeste 6 Nordeste 0 -- -- 70
2018-04-22 20:00:00 20.7 5 Sudoeste 19 Sudeste 0 -- -- 58
2018-04-22 19:00:00 23.6 13 Sur 21 Sur 0 -- -- 49
2018-04-22 18:00:00 24.8 13 Sur 21 Sur 0 -- -- 44
2018-04-22 17:00:00 24.9 10 Sur 19 Sudeste 0 -- -- 46
2018-04-22 16:00:00 24.3 9 Sudeste 16 Sur 0 -- -- 47
2018-04-22 15:00:00 23.6 5 Sur 17 Sur 0 -- -- 47
2018-04-22 14:00:00 24 10 Sudoeste 20 Sur 0 -- -- 44
2018-04-22 13:00:00 22.3 8 Sur 15 Sur 0 -- -- 50
2018-04-22 12:00:00 20.6 6 Sur 14 Sur 0 -- -- 49
2018-04-22 11:00:00 20.6 7 Sudeste 12 Sudeste 0 -- -- 46
2018-04-22 10:00:00 18.8 4 Sur 8 Sudeste 0 -- -- 54
2018-04-22 09:00:00 16.9 3 Sudoeste 11 Nordeste 0 -- -- 67
2018-04-22 08:00:00 14 6 Nordeste 17 Nordeste 0 -- -- 74
2018-04-22 07:00:00 11.7 8 Nordeste 17 Nordeste 0 -- -- 81
2018-04-22 06:00:00 11.5 13 Nordeste 18 Nordeste 0 -- -- 81
2018-04-22 05:00:00 11.8 10 Nordeste 18 Nordeste 0 -- -- 81
2018-04-22 04:00:00 11.7 9 Nordeste 12 Nordeste 0 -- -- 82
2018-04-22 03:00:00 11.9 9 Nordeste 12 Nordeste 0 -- -- 82
2018-04-22 02:00:00 12.9 10 Nordeste 14 Nordeste 0 -- -- 77
2018-04-22 01:00:00 13.6 8 Nordeste 13 Nordeste 0 -- -- 75
2018-04-22 00:00:00 14.7 9 Nordeste 13 Nordeste 0 -- -- 70